Terminal Aerodrome Forecast
Issued by NWS Sioux Falls, SD

Home | Current Version | Previous Version | Graphics & Text | Print | Product List | Glossary Off
Versions: 1 2 3 4 5 6 7 8 9 10 11 12 13 14 15 16 17 18 19 20 21

000
FTUS43 KFSD 251137
TAFHON
TAF
KHON 251137Z 2512/2612 18005KT P6SM OVC040
     FM251500 17009KT P6SM BKN200
     FM252100 15011KT P6SM OVC060
     FM260000 16008KT 2SM -SN OVC025
     FM260600 29010KT 2SM -SN OVC010
     FM260800 34018G26KT 2SM -SN BLSN OVC009=

USA.gov is the U.S. government's official web portal to all federal, state and local government web resources and services.